Terminal Aerodrome Forecast
Issued by NWS

Home | Current Version | Previous Version | Text Only | Print | Product List | Glossary On
Versions: 1 2 3 4 5 6 7 8 9 10 11 12 13 14 15 16 17 18
000
FTUS46 KEKA 262333
TAFCEC
TAF
KCEC 262333Z 2700/2724 16009KT P6SM SCT100 BKN200
     FM270200 17012KT P6SM SCT050 BKN100 OVC200
     FM271200 16015KT P6SM -RA SCT020 BKN050 OVC100
     FM271800 15015KT 5SM -RA BR BKN020 OVC050=

USA.gov is the U.S. government's official web portal to all federal, state and local government web resources and services.